createdAt,value
2018-01-01T00:02:17.856Z,77.00
2018-01-01T00:04:45.484Z,77.00
2018-01-01T00:07:13.305Z,76.70
2018-01-01T00:09:42.032Z,76.60
2018-01-01T00:12:09.653Z,76.60
2018-01-01T00:14:37.252Z,76.70
2018-01-01T00:17:05.087Z,76.60
2018-01-01T00:19:32.811Z,76.60
2018-01-01T00:22:00.409Z,76.70
2018-01-01T00:24:28.027Z,76.20
2018-01-01T00:26:55.637Z,75.60
2018-01-01T00:29:23.248Z,75.80
2018-01-01T00:31:50.888Z,74.30
2018-01-01T00:34:18.445Z,74.50
2018-01-01T00:36:48.056Z,74.50
2018-01-01T00:39:15.646Z,73.30
2018-01-01T00:41:43.236Z,72.30
2018-01-01T00:44:10.829Z,71.80
2018-01-01T00:46:38.431Z,71.70
2018-01-01T00:49:05.983Z,72.20
2018-01-01T00:51:33.586Z,72.20
2018-01-01T00:54:01.915Z,71.90
2018-01-01T00:56:30.528Z,71.80
2018-01-01T00:58:58.161Z,71.00
2018-01-01T01:01:26.554Z,70.70
2018-01-01T01:03:54.127Z,70.60
2018-01-01T01:06:23.827Z,69.60
2018-01-01T01:08:51.415Z,70.20
2018-01-01T01:11:19.006Z,70.30
2018-01-01T01:13:46.619Z,70.20
2018-01-01T01:16:16.406Z,69.90
2018-01-01T01:18:44.891Z,69.70
2018-01-01T01:21:12.558Z,69.90
2018-01-01T01:23:40.198Z,69.80
2018-01-01T01:26:08.594Z,69.00
2018-01-01T01:28:36.187Z,69.00
2018-01-01T01:31:03.776Z,69.70
2018-01-01T01:33:31.371Z,69.70
2018-01-01T01:35:59.805Z,70.20
2018-01-01T01:38:27.510Z,68.80
2018-01-01T01:40:55.146Z,68.60
2018-01-01T01:43:22.805Z,68.50
2018-01-01T01:45:50.365Z,68.90
2018-01-01T01:48:17.939Z,68.50
2018-01-01T01:50:45.492Z,67.80
2018-01-01T01:53:13.060Z,67.80
2018-01-01T01:55:40.704Z,68.40
2018-01-01T01:58:13.382Z,68.10
2018-01-01T02:00:41.068Z,69.70
2018-01-01T02:03:09.425Z,72.00
2018-01-01T02:05:37.012Z,72.00
2018-01-01T02:08:05.372Z,72.70
2018-01-01T02:10:32.966Z,72.70
2018-01-01T02:13:01.377Z,74.40
2018-01-01T02:15:29.892Z,74.30
2018-01-01T02:18:06.157Z,74.80
2018-01-01T02:20:34.379Z,75.60
2018-01-01T02:23:02.069Z,76.00
2018-01-01T02:25:29.716Z,76.20
2018-01-01T02:27:59.269Z,77.50
2018-01-01T02:30:26.886Z,77.80
2018-01-01T02:32:54.480Z,78.80
2018-01-01T02:35:22.081Z,79.90
2018-01-01T02:37:51.664Z,80.40
2018-01-01T02:40:19.358Z,80.40
2018-01-01T02:42:46.929Z,80.60
2018-01-01T02:45:14.959Z,79.90
2018-01-01T02:47:48.434Z,79.50
2018-01-01T02:50:16.017Z,79.50
2018-01-01T02:52:44.633Z,79.20
2018-01-01T02:55:12.475Z,79.60
2018-01-01T02:57:40.875Z,79.80
2018-01-01T03:00:08.431Z,79.70
2018-01-01T03:02:36.051Z,79.30
2018-01-01T03:05:03.855Z,79.60
2018-01-01T03:07:32.435Z,80.10
2018-01-01T03:10:00.748Z,80.40
2018-01-01T03:12:28.462Z,80.30
2018-01-01T03:14:56.517Z,80.20
2018-01-01T03:17:24.672Z,80.20
2018-01-01T03:19:53.048Z,81.10
2018-01-01T03:22:21.382Z,81.30
2018-01-01T03:24:49.124Z,81.30
2018-01-01T03:27:16.866Z,81.60
2018-01-01T03:29:45.344Z,81.20
2018-01-01T03:32:13.897Z,79.40
2018-01-01T03:34:41.466Z,79.30
2018-01-01T03:37:10.083Z,80.20
2018-01-01T03:39:38.406Z,79.70
2018-01-01T03:42:07.025Z,79.70
2018-01-01T03:44:34.837Z,79.80
2018-01-01T03:47:02.477Z,80.90
2018-01-01T03:49:30.843Z,80.90
2018-01-01T03:51:58.436Z,80.90
2018-01-01T03:54:26.065Z,80.70
2018-01-01T03:56:53.726Z,81.00
2018-01-01T03:59:21.490Z,80.00
2018-01-01T04:01:49.370Z,80.10
2018-01-01T04:04:16.944Z,80.50
2018-01-01T04:06:44.530Z,79.50
2018-01-01T04:09:12.162Z,80.20
2018-01-01T04:11:40.521Z,79.40
2018-01-01T04:14:08.872Z,79.40
2018-01-01T04:16:36.703Z,78.80
2018-01-01T04:19:04.321Z,79.60
2018-01-01T04:21:31.953Z,79.70
2018-01-01T04:23:59.507Z,78.80
2018-01-01T04:26:35.412Z,78.60
2018-01-01T04:29:03.086Z,78.60
2018-01-01T04:31:30.743Z,78.50
2018-01-01T04:33:58.386Z,78.70
2018-01-01T04:36:26.064Z,78.70
2018-01-01T04:38:53.798Z,78.30
2018-01-01T04:41:21.377Z,79.00
2018-01-01T04:43:49.138Z,79.30
2018-01-01T04:46:24.752Z,78.10
2018-01-01T04:48:53.082Z,79.60
2018-01-01T04:51:21.227Z,79.50
2018-01-01T04:53:48.933Z,79.00
2018-01-01T04:56:22.428Z,79.20
2018-01-01T04:58:50.035Z,79.20
2018-01-01T05:01:17.662Z,79.40
2018-01-01T05:03:46.059Z,79.10
2018-01-01T05:06:25.553Z,78.40
2018-01-01T05:08:53.190Z,78.30
2018-01-01T05:11:21.556Z,79.20
2018-01-01T05:13:49.927Z,79.00
2018-01-01T05:16:18.631Z,78.80
2018-01-01T05:18:46.372Z,78.80
2018-01-01T05:21:14.044Z,78.70
2018-01-01T05:23:41.634Z,78.70
2018-01-01T05:26:09.986Z,78.10
2018-01-01T05:28:37.554Z,78.10
2018-01-01T05:31:05.262Z,77.90
2018-01-01T05:33:32.936Z,78.00
2018-01-01T05:36:00.563Z,77.40
2018-01-01T05:38:47.061Z,77.90
2018-01-01T05:41:14.673Z,77.80
2018-01-01T05:43:42.273Z,77.20
2018-01-01T05:46:09.997Z,77.30
2018-01-01T05:48:38.731Z,77.10
2018-01-01T05:51:06.393Z,76.80
2018-01-01T05:53:34.773Z,77.70
2018-01-01T05:56:02.376Z,77.50
2018-01-01T05:58:30.885Z,76.80
2018-01-01T06:00:59.323Z,76.60
2018-01-01T06:03:27.826Z,76.60
2018-01-01T06:05:56.553Z,77.00
2018-01-01T06:08:24.206Z,76.80
2018-01-01T06:10:51.824Z,77.20
2018-01-01T06:13:20.228Z,76.70
2018-01-01T06:15:47.848Z,76.70
2018-01-01T06:18:16.442Z,77.20
2018-01-01T06:20:45.724Z,76.90
2018-01-01T06:23:13.342Z,76.80
2018-01-01T06:25:40.995Z,76.60
2018-01-01T06:28:09.513Z,76.50
2018-01-01T06:30:37.895Z,76.60
2018-01-01T06:33:05.462Z,77.00
2018-01-01T06:35:33.075Z,76.90
2018-01-01T06:38:01.633Z,77.00
2018-01-01T06:40:29.847Z,77.00
2018-01-01T06:42:57.585Z,76.80
2018-01-01T06:45:26.269Z,76.70
2018-01-01T06:47:53.987Z,76.90
2018-01-01T06:50:21.588Z,76.90
2018-01-01T06:52:49.240Z,76.60
2018-01-01T06:55:16.848Z,76.50
2018-01-01T06:57:44.640Z,77.10
2018-01-01T07:00:12.236Z,77.00
2018-01-01T07:02:39.878Z,77.80
2018-01-01T07:05:07.436Z,77.00
2018-01-01T07:07:47.542Z,77.10
2018-01-01T07:10:15.925Z,77.80
2018-01-01T07:12:44.255Z,77.50
2018-01-01T07:15:13.041Z,77.40
2018-01-01T07:17:41.631Z,77.10
2018-01-01T07:20:10.219Z,78.10
2018-01-01T07:22:37.979Z,77.60
2018-01-01T07:25:05.539Z,77.20
2018-01-01T07:27:44.254Z,77.60
2018-01-01T07:30:11.891Z,77.40
2018-01-01T07:32:39.434Z,77.50
2018-01-01T07:35:07.042Z,77.40
2018-01-01T07:37:43.199Z,77.90
2018-01-01T07:40:10.802Z,77.60
2018-01-01T07:42:38.360Z,77.80
2018-01-01T07:45:06.056Z,78.00
2018-01-01T07:47:36.346Z,78.30
2018-01-01T07:50:04.059Z,78.30
2018-01-01T07:52:32.395Z,78.20
2018-01-01T07:55:00.931Z,78.40
2018-01-01T07:57:28.607Z,78.20
2018-01-01T07:59:56.219Z,78.40
2018-01-01T08:02:25.675Z,78.30
2018-01-01T08:04:54.055Z,78.30
2018-01-01T08:07:21.681Z,78.40
2018-01-01T08:09:49.348Z,78.00
2018-01-01T08:12:17.685Z,78.00
2018-01-01T08:14:45.847Z,78.00
2018-01-01T08:17:14.091Z,78.40
2018-01-01T08:19:42.408Z,78.00
2018-01-01T08:22:10.032Z,78.00
2018-01-01T08:24:39.464Z,77.40
2018-01-01T08:27:12.808Z,77.40
2018-01-01T08:29:40.491Z,76.70
2018-01-01T08:32:09.506Z,75.70
2018-01-01T08:34:37.180Z,75.70
2018-01-01T08:37:04.838Z,75.60
2018-01-01T08:39:32.410Z,75.70
2018-01-01T08:42:00.539Z,76.10
2018-01-01T08:44:29.315Z,76.50
2018-01-01T08:47:02.777Z,76.80
2018-01-01T08:49:30.369Z,76.80
2018-01-01T08:51:57.928Z,76.80
2018-01-01T08:54:25.491Z,76.60
2018-01-01T08:56:53.107Z,76.80
2018-01-01T08:59:20.713Z,76.90
2018-01-01T09:01:48.328Z,77.30
2018-01-01T09:04:15.934Z,77.10
2018-01-01T09:06:45.626Z,77.10
2018-01-01T09:09:13.304Z,76.90
2018-01-01T09:11:40.916Z,76.90
2018-01-01T09:14:08.474Z,76.80
2018-01-01T09:16:36.150Z,76.80
2018-01-01T09:19:04.522Z,76.60
2018-01-01T09:21:32.973Z,76.90
2018-01-01T09:24:00.588Z,76.20
2018-01-01T09:26:28.391Z,76.20
2018-01-01T09:28:56.741Z,75.90
2018-01-01T09:31:25.101Z,75.90
2018-01-01T09:33:53.523Z,75.30
2018-01-01T09:36:24.789Z,75.30
2018-01-01T09:38:52.397Z,75.10
2018-01-01T09:41:20.115Z,75.30
2018-01-01T09:43:47.683Z,75.30
2018-01-01T09:46:15.253Z,74.70
2018-01-01T09:48:42.864Z,74.80
2018-01-01T09:51:13.726Z,74.60
2018-01-01T09:53:41.314Z,75.20
2018-01-01T09:56:08.918Z,75.10
2018-01-01T09:58:36.562Z,74.90
2018-01-01T10:01:04.898Z,75.20
2018-01-01T10:03:32.484Z,75.10
2018-01-01T10:06:00.128Z,75.10
2018-01-01T10:08:28.706Z,75.60
2018-01-01T10:10:56.349Z,74.70
2018-01-01T10:13:23.898Z,74.80
2018-01-01T10:15:51.464Z,75.10
2018-01-01T10:18:20.914Z,74.50
2018-01-01T10:20:49.236Z,75.00
2018-01-01T10:23:17.611Z,75.70
2018-01-01T10:25:45.295Z,75.00
2018-01-01T10:28:12.915Z,74.50
2018-01-01T10:30:40.579Z,74.40
2018-01-01T10:33:08.231Z,74.10
2018-01-01T10:35:35.934Z,73.70
2018-01-01T10:38:04.540Z,73.20
2018-01-01T10:40:32.960Z,73.20
2018-01-01T10:43:00.567Z,73.20
2018-01-01T10:45:29.058Z,73.20
2018-01-01T10:48:01.540Z,73.10
2018-01-01T10:50:29.738Z,73.30
2018-01-01T10:52:57.397Z,72.40
2018-01-01T10:55:25.010Z,72.40
2018-01-01T10:57:56.488Z,72.20
2018-01-01T11:00:25.964Z,72.50
2018-01-01T11:02:55.250Z,71.20
2018-01-01T11:05:23.692Z,71.20
2018-01-01T11:07:51.353Z,71.60
2018-01-01T11:10:18.963Z,71.90
2018-01-01T11:12:46.686Z,72.40
2018-01-01T11:15:14.437Z,72.00
2018-01-01T11:17:46.719Z,72.00
2018-01-01T11:20:14.294Z,71.80
2018-01-01T11:22:41.867Z,72.00
2018-01-01T11:25:09.499Z,72.10
2018-01-01T11:27:42.816Z,72.00
2018-01-01T11:30:10.552Z,71.60
2018-01-01T11:32:42.751Z,72.20
2018-01-01T11:35:10.428Z,71.80
2018-01-01T11:37:39.286Z,72.00
2018-01-01T11:40:08.450Z,71.50
2018-01-01T11:42:36.012Z,71.40
2018-01-01T11:45:04.106Z,71.80
2018-01-01T11:47:32.424Z,71.10
2018-01-01T11:50:00.834Z,70.80
2018-01-01T11:52:28.403Z,70.80
2018-01-01T11:54:56.051Z,71.10
2018-01-01T11:57:24.773Z,70.20
2018-01-01T11:59:52.380Z,69.80
2018-01-01T12:02:20.679Z,69.80
2018-01-01T12:04:49.217Z,69.10
2018-01-01T12:07:17.539Z,70.20
2018-01-01T12:09:45.891Z,69.60
2018-01-01T12:12:16.305Z,69.60
2018-01-01T12:14:41.106Z,70.10
2018-01-01T12:17:10.378Z,71.70
2018-01-01T12:19:38.094Z,70.70
2018-01-01T12:22:06.088Z,70.10
2018-01-01T12:24:33.751Z,70.20
2018-01-01T12:27:01.386Z,69.80
2018-01-01T12:29:30.436Z,70.30
2018-01-01T12:31:58.049Z,70.30
2018-01-01T12:34:25.726Z,70.10
2018-01-01T12:37:03.784Z,71.00
2018-01-01T12:39:31.433Z,70.30
2018-01-01T12:41:59.145Z,70.90
2018-01-01T12:44:26.754Z,70.80
2018-01-01T12:46:54.299Z,70.50
2018-01-01T12:49:21.891Z,70.40
2018-01-01T12:51:49.487Z,70.40
2018-01-01T12:54:17.921Z,70.50
2018-01-01T12:56:45.530Z,71.40
2018-01-01T12:59:13.158Z,71.20
2018-01-01T13:01:40.698Z,70.70
2018-01-01T13:04:08.295Z,70.00
2018-01-01T13:06:37.952Z,69.90
2018-01-01T13:09:06.280Z,70.50
2018-01-01T13:11:33.916Z,70.30
2018-01-01T13:14:01.509Z,70.20
2018-01-01T13:16:29.140Z,70.50
2018-01-01T13:18:56.897Z,70.80
2018-01-01T13:21:24.478Z,70.20
2018-01-01T13:23:52.112Z,70.20
2018-01-01T13:26:21.379Z,70.20
2018-01-01T13:28:49.923Z,71.10
2018-01-01T13:31:17.527Z,70.30
2018-01-01T13:33:47.167Z,69.70
2018-01-01T13:36:16.525Z,69.70
2018-01-01T13:38:44.744Z,70.70
2018-01-01T13:41:12.405Z,70.50
2018-01-01T13:43:40.188Z,70.00
2018-01-01T13:46:08.547Z,70.40
2018-01-01T13:48:37.007Z,70.30
2018-01-01T13:51:05.406Z,70.40
2018-01-01T13:53:33.770Z,70.00
2018-01-01T13:56:01.333Z,69.90
2018-01-01T13:58:43.877Z,69.20
2018-01-01T14:01:11.424Z,70.50
2018-01-01T14:03:39.745Z,70.70
2018-01-01T14:06:07.337Z,70.70
2018-01-01T14:08:35.535Z,71.00
2018-01-01T14:11:03.873Z,71.60
2018-01-01T14:13:31.476Z,71.60
2018-01-01T14:15:59.804Z,72.00
2018-01-01T14:18:31.504Z,71.90
2018-01-01T14:20:59.136Z,72.30
2018-01-01T14:23:26.703Z,72.40
2018-01-01T14:25:54.300Z,72.90
2018-01-01T14:28:23.647Z,72.20
2018-01-01T14:30:52.154Z,72.20
2018-01-01T14:33:19.739Z,72.40
2018-01-01T14:35:48.055Z,72.30
2018-01-01T14:38:15.617Z,72.30
2018-01-01T14:40:43.867Z,72.30
2018-01-01T14:43:13.559Z,72.90
2018-01-01T14:45:41.184Z,72.80
2018-01-01T14:48:09.751Z,73.00
2018-01-01T14:50:37.361Z,73.90
2018-01-01T14:53:04.919Z,74.20
2018-01-01T14:55:32.540Z,74.80
2018-01-01T14:58:01.067Z,75.80
2018-01-01T15:00:29.577Z,76.70
2018-01-01T15:02:57.208Z,77.00
2018-01-01T15:05:24.791Z,77.20
2018-01-01T15:07:52.368Z,78.20
2018-01-01T15:10:20.802Z,79.50
2018-01-01T15:12:50.116Z,79.40
2018-01-01T15:15:17.685Z,80.30
2018-01-01T15:17:53.443Z,81.00
2018-01-01T15:20:21.096Z,81.20
2018-01-01T15:22:48.673Z,81.30
2018-01-01T15:25:16.307Z,82.30
2018-01-01T15:27:43.863Z,82.40
2018-01-01T15:30:11.746Z,82.50
2018-01-01T15:32:39.417Z,82.40
2018-01-01T15:35:08.203Z,83.20
2018-01-01T15:37:35.835Z,82.80
2018-01-01T15:40:03.441Z,82.70
2018-01-01T15:42:31.020Z,82.90
2018-01-01T15:44:59.939Z,82.80
2018-01-01T15:47:28.370Z,83.40
2018-01-01T15:49:56.776Z,83.30
2018-01-01T15:52:24.448Z,83.70
2018-01-01T15:54:52.881Z,84.00
2018-01-01T15:57:21.424Z,84.00
2018-01-01T15:59:50.331Z,84.00
2018-01-01T16:02:20.631Z,84.20
2018-01-01T16:04:49.153Z,83.20
2018-01-01T16:07:16.815Z,83.10
2018-01-01T16:09:44.418Z,82.90
2018-01-01T16:12:13.350Z,82.70
2018-01-01T16:14:42.549Z,82.50
2018-01-01T16:17:10.960Z,83.70
2018-01-01T16:19:39.206Z,82.90
2018-01-01T16:22:06.778Z,83.30
2018-01-01T16:24:35.164Z,83.10
2018-01-01T16:27:02.856Z,83.00
2018-01-01T16:29:31.468Z,83.40
2018-01-01T16:31:59.950Z,83.80
2018-01-01T16:34:27.650Z,83.30
2018-01-01T16:36:56.192Z,83.30
2018-01-01T16:39:23.937Z,84.50
2018-01-01T16:41:51.699Z,84.30
2018-01-01T16:44:19.343Z,83.60
2018-01-01T16:46:48.074Z,83.70
2018-01-01T16:49:20.703Z,84.10
2018-01-01T16:51:48.448Z,83.50
2018-01-01T16:54:16.123Z,84.20
2018-01-01T16:56:44.503Z,84.40
2018-01-01T16:59:17.059Z,84.30
2018-01-01T17:01:45.677Z,84.10
2018-01-01T17:04:14.157Z,84.10
2018-01-01T17:06:42.546Z,83.30
2018-01-01T17:09:11.470Z,83.20
2018-01-01T17:11:39.151Z,83.10
2018-01-01T17:14:06.820Z,84.30
2018-01-01T17:16:34.434Z,84.60
2018-01-01T17:19:09.484Z,82.80
2018-01-01T17:21:38.066Z,83.80
2018-01-01T17:24:06.652Z,83.00
2018-01-01T17:26:34.481Z,83.10
2018-01-01T17:29:03.077Z,83.50
2018-01-01T17:31:31.585Z,83.80
2018-01-01T17:33:59.233Z,83.90
2018-01-01T17:36:26.977Z,84.20
2018-01-01T17:38:54.930Z,84.20
2018-01-01T17:41:23.126Z,84.10
2018-01-01T17:43:50.813Z,84.70
2018-01-01T17:46:20.226Z,84.60
2018-01-01T17:48:48.148Z,84.60
2018-01-01T17:51:15.718Z,84.40
2018-01-01T17:53:46.008Z,84.60
2018-01-01T17:56:14.102Z,85.00
2018-01-01T17:58:41.889Z,84.70
2018-01-01T18:01:09.518Z,85.10
2018-01-01T18:03:37.841Z,85.30
2018-01-01T18:06:06.532Z,85.10
2018-01-01T18:08:34.646Z,85.10
2018-01-01T18:11:02.469Z,84.90
2018-01-01T18:13:30.040Z,84.90
2018-01-01T18:15:58.069Z,84.90
2018-01-01T18:18:26.442Z,84.80
2018-01-01T18:20:54.003Z,85.00
2018-01-01T18:23:22.075Z,85.20
2018-01-01T18:25:49.744Z,85.70
2018-01-01T18:28:19.332Z,85.70
2018-01-01T18:30:47.987Z,85.30
2018-01-01T18:33:15.632Z,85.10
2018-01-01T18:35:43.896Z,85.10
2018-01-01T18:38:12.987Z,84.70
2018-01-01T18:40:41.592Z,84.60
2018-01-01T18:43:09.192Z,84.50
2018-01-01T18:45:38.114Z,84.60
2018-01-01T18:48:10.742Z,84.60
2018-01-01T18:50:40.166Z,84.80
2018-01-01T18:53:07.948Z,84.60
2018-01-01T18:55:35.544Z,84.50
2018-01-01T18:58:03.187Z,84.60
2018-01-01T19:00:31.385Z,84.30
2018-01-01T19:02:59.841Z,84.70
2018-01-01T19:05:27.445Z,84.60
2018-01-01T19:07:59.867Z,84.80
2018-01-01T19:10:29.293Z,85.10
2018-01-01T19:12:56.984Z,85.20
2018-01-01T19:15:24.520Z,85.40
2018-01-01T19:18:03.096Z,85.10
2018-01-01T19:20:31.038Z,84.90
2018-01-01T19:22:59.333Z,84.30
2018-01-01T19:25:28.018Z,84.20
2018-01-01T19:27:57.190Z,85.20
2018-01-01T19:30:26.589Z,84.90
2018-01-01T19:32:54.316Z,84.50
2018-01-01T19:35:22.678Z,84.70
2018-01-01T19:37:51.248Z,84.60
2018-01-01T19:40:20.324Z,84.60
2018-01-01T19:42:48.809Z,85.20
2018-01-01T19:45:16.499Z,85.30
2018-01-01T19:47:44.962Z,86.10
2018-01-01T19:50:13.851Z,85.40
2018-01-01T19:52:41.561Z,85.10
2018-01-01T19:55:10.010Z,85.10
2018-01-01T19:57:39.280Z,85.10
2018-01-01T20:00:07.513Z,84.80
2018-01-01T20:02:35.891Z,84.80
2018-01-01T20:05:04.858Z,85.20
2018-01-01T20:07:33.175Z,86.00
2018-01-01T20:10:02.268Z,85.90
2018-01-01T20:12:31.364Z,85.90
2018-01-01T20:14:59.229Z,85.90
2018-01-01T20:17:27.596Z,85.90
2018-01-01T20:19:55.742Z,85.40
2018-01-01T20:22:25.477Z,85.50
2018-01-01T20:24:53.879Z,85.20
2018-01-01T20:27:23.554Z,85.30
2018-01-01T20:29:51.094Z,85.30
2018-01-01T20:32:18.783Z,85.00
2018-01-01T20:34:46.345Z,84.40
2018-01-01T20:37:15.421Z,84.80
2018-01-01T20:39:44.561Z,84.70
2018-01-01T20:42:12.236Z,84.80
2018-01-01T20:44:39.844Z,84.60
2018-01-01T20:47:08.792Z,84.50
2018-01-01T20:49:36.408Z,84.40
2018-01-01T20:52:04.389Z,84.70
2018-01-01T20:54:32.248Z,84.90
2018-01-01T20:57:00.404Z,84.80
2018-01-01T20:59:28.815Z,84.90
2018-01-01T21:01:57.108Z,84.90
2018-01-01T21:04:24.812Z,85.10
2018-01-01T21:06:53.122Z,85.00
2018-01-01T21:09:20.748Z,84.90
2018-01-01T21:11:49.573Z,85.40
2018-01-01T21:14:18.067Z,85.30
2018-01-01T21:16:46.704Z,85.30
2018-01-01T21:19:14.435Z,85.30
2018-01-01T21:21:42.784Z,85.40
2018-01-01T21:24:11.295Z,85.40
2018-01-01T21:26:38.910Z,85.80
2018-01-01T21:29:07.431Z,86.00
2018-01-01T21:31:35.024Z,86.10
2018-01-01T21:34:02.576Z,85.80
2018-01-01T21:36:30.158Z,86.00
2018-01-01T21:38:59.331Z,86.10
2018-01-01T21:41:27.738Z,86.10
2018-01-01T21:43:56.248Z,86.10
2018-01-01T21:46:25.394Z,86.30
2018-01-01T21:48:53.174Z,86.30
2018-01-01T21:51:22.332Z,86.20
2018-01-01T21:53:50.263Z,86.20
2018-01-01T21:56:17.977Z,86.50
2018-01-01T21:58:52.421Z,87.10
2018-01-01T22:01:19.983Z,86.40
2018-01-01T22:03:47.738Z,86.30
2018-01-01T22:06:15.481Z,86.20
2018-01-01T22:08:46.629Z,86.40
2018-01-01T22:11:14.252Z,86.40
2018-01-01T22:13:41.860Z,86.30
2018-01-01T22:16:09.468Z,86.10
2018-01-01T22:18:41.140Z,86.10
2018-01-01T22:21:08.758Z,85.80
2018-01-01T22:23:36.299Z,85.80
2018-01-01T22:26:04.766Z,85.90
2018-01-01T22:28:33.258Z,85.80
2018-01-01T22:31:00.914Z,85.80
2018-01-01T22:33:28.489Z,85.40
2018-01-01T22:35:56.084Z,85.40
2018-01-01T22:38:23.686Z,85.30
2018-01-01T22:40:52.032Z,85.70
2018-01-01T22:43:19.713Z,85.30
2018-01-01T22:45:47.369Z,85.30
2018-01-01T22:48:14.969Z,85.30
2018-01-01T22:50:43.371Z,85.30
2018-01-01T22:53:11.067Z,85.30
2018-01-01T22:55:38.767Z,85.20
2018-01-01T22:58:07.227Z,85.50
2018-01-01T23:00:35.150Z,85.50
2018-01-01T23:03:02.772Z,85.10
2018-01-01T23:05:33.079Z,85.10
2018-01-01T23:08:02.200Z,85.40
2018-01-01T23:10:31.689Z,85.30
2018-01-01T23:12:59.506Z,85.30
2018-01-01T23:15:28.338Z,85.70
2018-01-01T23:18:01.373Z,85.70
2018-01-01T23:20:29.721Z,85.60
2018-01-01T23:22:57.307Z,85.40
2018-01-01T23:25:25.009Z,85.20
2018-01-01T23:27:53.399Z,85.80
2018-01-01T23:30:21.001Z,85.70
2018-01-01T23:32:48.605Z,85.20
2018-01-01T23:35:16.740Z,85.30
2018-01-01T23:37:45.212Z,85.60
2018-01-01T23:40:12.798Z,85.10
2018-01-01T23:42:41.912Z,85.50
2018-01-01T23:45:10.126Z,85.40
2018-01-01T23:47:38.847Z,85.20
2018-01-01T23:50:06.480Z,85.20
2018-01-01T23:52:34.145Z,85.20
2018-01-01T23:55:01.754Z,85.00
2018-01-01T23:57:30.307Z,85.00
2018-01-01T23:59:57.984Z,85.00
